MDT,Max TemperatureF,Mean TemperatureF,Min TemperatureF,Max Dew PointF,MeanDew PointF,Min DewpointF,Max Humidity, Mean Humidity, Min Humidity, Max Sea Level PressureIn, Mean Sea Level PressureIn, Min Sea Level PressureIn, Max VisibilityMiles, Mean VisibilityMiles, Min VisibilityMiles, Max Wind SpeedMPH, Mean Wind SpeedMPH, Max Gust SpeedMPH,PrecipitationIn, CloudCover, Events, WindDirDegrees
2013-7-1,91,76,60,60,56,53,84,58,31,30.16,30.12,30.07,,,,10,4,13,0.00,,,102
2013-7-2,92,74,56,61,57,53,93,62,30,30.10,30.02,29.89,,,,12,4,15,0.00,,,118
2013-7-3,97,81,65,66,58,53,79,52,25,29.87,29.79,29.73,,,,24,8,30,0.06,,,345
2013-7-4,81,73,64,67,61,57,93,69,45,,,,,,,10,5,,0.00,,,55
2013-7-5,82,71,60,66,61,57,90,71,51,,,,,,,14,6,43,0.02,,,305
2013-7-6,79,68,56,61,55,51,90,65,40,,,,,,,33,11,45,0.60,,,319
2013-7-7,84,72,60,62,58,54,93,68,43,,,,,,,20,7,25,0.00,,,92
2013-7-8,87,71,54,63,58,52,97,70,42,30.01,29.97,29.92,,,,25,6,31,0.18,,,19
2013-7-9,76,66,55,57,54,50,100,71,41,30.15,30.10,29.99,,,,21,8,25,0.00,,,317
2013-7-10,92,72,51,64,55,49,89,57,24,30.12,29.97,29.81,,,,10,4,14,0.00,,,111
2013-7-11,93,79,65,62,55,48,70,50,30,29.79,29.68,29.62,,,,18,8,24,0.00,,,273
2013-7-12,89,76,63,57,49,40,73,46,19,29.90,29.79,29.69,,,,32,9,40,0.02,,,294
2013-7-13,85,72,58,58,53,46,90,63,36,30.18,29.95,29.83,,,,29,11,36,0.03,,,11
2013-7-14,78,64,49,53,50,47,93,65,36,30.25,30.18,30.08,,,,22,9,29,0.00,,,100
2013-7-15,97,78,58,62,54,41,90,53,16,30.07,29.90,29.78,,,,30,9,39,0.00,,,120
2013-7-16,79,67,55,56,50,46,72,54,35,30.22,30.16,29.96,,,,25,12,33,0.00,,,27
2013-7-17,80,72,63,64,59,51,84,71,58,30.20,30.11,29.98,,,,16,8,21,0.02,,,84
2013-7-18,91,75,59,62,52,42,93,57,21,30.04,29.97,29.91,,,,25,10,35,0.00,,,304
2013-7-19,92,72,52,53,48,43,83,52,20,30.05,29.96,29.85,,,,23,5,30,0.00,,,331
2013-7-20,88,71,54,59,53,48,86,56,26,29.96,29.89,29.80,,,,13,6,16,0.00,,,41
2013-7-21,91,74,57,58,52,44,73,47,21,29.85,29.75,29.68,,,,25,9,31,0.00,,,340
2013-7-22,90,72,53,62,55,50,93,54,14,30.06,29.87,29.78,,,,35,9,44,0.77,,,85
2013-7-23,84,69,53,59,56,53,100,69,37,30.07,30.01,29.95,,,,15,4,18,0.00,,,22
2013-7-24,90,73,56,60,55,49,93,59,24,30.09,30.02,29.88,,,,32,7,39,0.06,,,111
2013-7-25,75,64,52,61,53,43,97,66,35,30.26,30.16,30.04,,,,17,7,24,0.01,,,11
2013-7-26,75,61,47,48,46,44,93,63,33,30.32,30.22,30.15,,,,17,9,23,0.00,,,103
2013-7-27,86,70,53,51,47,43,66,48,29,30.14,29.97,29.83,,,,23,13,30,0.00,,,118
2013-7-28,77,68,59,55,51,48,84,63,41,29.88,29.84,29.79,,,,18,6,21,0.00,,,80
2013-7-29,76,65,53,54,52,48,93,67,41,30.06,29.98,29.86,,,,31,8,41,0.05,,,333
2013-7-30,78,65,51,57,53,49,89,64,39,30.20,30.12,30.03,,,,28,6,40,0.02,,,17
2013-7-31,85,67,49,52,49,47,100,64,28,30.22,30.16,30.06,,,,12,5,16,0.00,,,308